Time;durP1;ratioP1;P1;durP2;ratioP2;P2;SDS_P1;SDS_P2;PMS_P1;PMS_P2;Temp;Humidity;BMP_temperature;BMP_pressure;BME280_temperature;BME280_humidity;BME280_pressure;Samples;Min_cycle;Max_cycle;Signal;HPM_P1;HPM_P2
2022/04/12 00:04:22;;;;;;;71.07;34.28;;;;;;;;;;10436748;28;20041;-71
2022/04/12 00:09:25;;;;;;;70.35;33.80;;;;;;;;;;10435706;28;20359;-71
2022/04/12 00:14:27;;;;;;;78.70;36.83;;;;;;;;;;10437544;28;20109;-71
2022/04/12 00:19:32;;;;;;;84.13;38.92;;;;;;;;;;10468117;28;20332;-71
2022/04/12 00:24:34;;;;;;;82.15;38.65;;;;;;;;;;10476444;28;20048;-71
2022/04/12 00:29:36;;;;;;;82.35;37.00;;;;;;;;;;10437724;28;20049;-72
2022/04/12 00:34:40;;;;;;;91.30;37.80;;;;;;;;;;10429643;28;20041;-71
2022/04/12 00:39:43;;;;;;;89.72;41.90;;;;;;;;;;10433503;28;20061;-72
2022/04/12 00:44:45;;;;;;;104.50;44.13;;;;;;;;;;10433918;28;20053;-72
2022/04/12 00:49:49;;;;;;;97.60;43.67;;;;;;;;;;10433694;28;20042;-72
2022/04/12 00:54:53;;;;;;;90.75;41.28;;;;;;;;;;10434088;28;20252;-71
2022/04/12 00:59:55;;;;;;;96.15;41.30;;;;;;;;;;10432108;28;20041;-71
2022/04/12 01:04:59;;;;;;;85.22;40.70;;;;;;;;;;10434807;28;20325;-71
2022/04/12 01:10:02;;;;;;;94.03;42.08;;;;;;;;;;10472470;28;20048;-71
2022/04/12 01:15:15;;;;;;;96.82;44.83;;;;;;;;;;10448525;28;20045;-70
2022/04/12 01:20:23;;;;;;;114.18;51.67;;;;;;;;;;10443990;28;20132;-72
2022/04/12 01:25:28;;;;;;;111.13;48.83;;;;;;;;;;10487297;28;20052;-70
2022/04/12 01:30:30;;;;;;;109.38;48.70;;;;;;;;;;10444150;28;20095;-71
2022/04/12 01:35:33;;;;;;;105.60;48.65;;;;;;;;;;10429995;28;20063;-70
2022/04/12 01:40:36;;;;;;;111.68;48.40;;;;;;;;;;10446225;28;20285;-71
2022/04/12 01:45:38;;;;;;;112.70;50.13;;;;;;;;;;10435119;28;20073;-71
2022/04/12 01:50:41;;;;;;;95.90;41.42;;;;;;;;;;10439066;28;20053;-71
2022/04/12 01:55:45;;;;;;;90.78;40.60;;;;;;;;;;10432829;28;20045;-72
2022/04/12 02:00:47;;;;;;;93.43;43.58;;;;;;;;;;10429940;28;20053;-71
2022/04/12 02:05:49;;;;;;;149.02;65.50;;;;;;;;;;10431017;28;20049;-71
2022/04/12 02:10:54;;;;;;;107.78;46.78;;;;;;;;;;10463084;28;20068;-70
2022/04/12 02:15:56;;;;;;;99.57;47.58;;;;;;;;;;10447215;28;20048;-71
2022/04/12 02:20:59;;;;;;;95.90;43.17;;;;;;;;;;10431508;28;20045;-72
2022/04/12 02:26:03;;;;;;;95.20;41.58;;;;;;;;;;10431029;28;20305;-72
2022/04/12 02:31:05;;;;;;;93.88;43.85;;;;;;;;;;10430353;28;20037;-71
2022/04/12 02:36:08;;;;;;;89.82;41.42;;;;;;;;;;10431685;28;20096;-70
2022/04/12 02:41:12;;;;;;;92.45;41.90;;;;;;;;;;10431471;28;20256;-71
2022/04/12 02:46:15;;;;;;;105.05;44.60;;;;;;;;;;10438321;28;20260;-72
2022/04/12 02:51:17;;;;;;;101.63;46.30;;;;;;;;;;10433951;28;20038;-71
2022/04/12 02:56:21;;;;;;;134.90;57.38;;;;;;;;;;10439110;28;20052;-71
2022/04/12 03:01:23;;;;;;;125.70;53.28;;;;;;;;;;10438414;28;20049;-71
2022/04/12 03:06:25;;;;;;;148.38;63.70;;;;;;;;;;10439559;28;20355;-71
2022/04/12 03:11:29;;;;;;;144.75;62.08;;;;;;;;;;10476181;28;20045;-71
2022/04/12 03:16:31;;;;;;;148.13;62.83;;;;;;;;;;10439000;28;20049;-71
2022/04/12 03:21:34;;;;;;;135.48;57.75;;;;;;;;;;10438132;28;20049;-70
2022/04/12 03:26:38;;;;;;;126.75;56.35;;;;;;;;;;10437605;28;20053;-71
2022/04/12 03:31:40;;;;;;;125.05;56.90;;;;;;;;;;10436296;28;20342;-71
2022/04/12 03:36:43;;;;;;;122.63;56.45;;;;;;;;;;10436000;28;20070;-71
2022/04/12 03:41:48;;;;;;;132.50;61.75;;;;;;;;;;10436037;28;20064;-71
2022/04/12 03:46:50;;;;;;;140.35;61.28;;;;;;;;;;10417617;28;20057;-69
2022/04/12 03:51:53;;;;;;;137.13;58.35;;;;;;;;;;10436858;28;20037;-71
2022/04/12 03:56:56;;;;;;;129.25;57.05;;;;;;;;;;10436863;28;20069;-71
2022/04/12 04:01:59;;;;;;;135.73;60.03;;;;;;;;;;10433966;28;20061;-71
2022/04/12 04:07:01;;;;;;;112.65;52.05;;;;;;;;;;10435915;28;20065;-71
2022/04/12 04:12:05;;;;;;;110.20;52.38;;;;;;;;;;10435519;28;20041;-71
2022/04/12 04:17:08;;;;;;;92.97;45.53;;;;;;;;;;10445256;28;20086;-71
2022/04/12 04:22:11;;;;;;;73.82;38.42;;;;;;;;;;10476892;28;20205;-71
2022/04/12 04:27:16;;;;;;;63.05;34.22;;;;;;;;;;10467880;28;20107;-71
2022/04/12 04:32:18;;;;;;;73.45;40.22;;;;;;;;;;10447140;28;20041;-71
2022/04/12 04:37:21;;;;;;;86.15;46.13;;;;;;;;;;10434528;28;20111;-72
2022/04/12 04:42:27;;;;;;;72.22;44.65;;;;;;;;;;10435349;28;20080;-70
2022/04/12 04:47:29;;;;;;;67.15;38.83;;;;;;;;;;10457847;28;20068;-72
2022/04/12 04:52:31;;;;;;;75.45;42.67;;;;;;;;;;10477044;28;20048;-73
2022/04/12 04:57:39;;;;;;;60.80;38.80;;;;;;;;;;10453216;28;20095;-72
2022/04/12 05:02:41;;;;;;;61.17;36.47;;;;;;;;;;10433635;28;20045;-72
2022/04/12 05:07:46;;;;;;;59.38;33.00;;;;;;;;;;10434971;28;20054;-72
2022/04/12 05:12:50;;;;;;;48.65;29.67;;;;;;;;;;10433889;28;20068;-72
2022/04/12 05:17:53;;;;;;;62.67;33.00;;;;;;;;;;10432251;28;20108;-72
2022/04/12 05:22:56;;;;;;;54.97;34.03;;;;;;;;;;10460192;28;20111;-73
2022/04/12 05:27:59;;;;;;;59.80;36.78;;;;;;;;;;10435362;28;20064;-73
2022/04/12 05:33:02;;;;;;;58.85;33.58;;;;;;;;;;10429604;28;20352;-73
2022/04/12 05:38:06;;;;;;;51.92;29.55;;;;;;;;;;10466599;28;20119;-72
2022/04/12 05:43:26;;;;;;;42.00;22.40;;;;;;;;;;10461150;28;20061;-72
2022/04/12 05:48:29;;;;;;;45.25;26.52;;;;;;;;;;10431442;28;20048;-72
2022/04/12 05:53:32;;;;;;;30.58;19.40;;;;;;;;;;10441177;28;20360;-72
2022/04/12 05:58:38;;;;;;;24.45;17.48;;;;;;;;;;10431086;28;20072;-72
2022/04/12 06:03:40;;;;;;;27.25;16.20;;;;;;;;;;10459267;28;20075;-73
2022/04/12 06:08:43;;;;;;;23.35;14.90;;;;;;;;;;10466853;28;20073;-69
2022/04/12 06:13:46;;;;;;;18.60;13.93;;;;;;;;;;10457059;28;20083;-70
2022/04/12 06:18:49;;;;;;;18.35;13.57;;;;;;;;;;10431580;28;20379;-70
2022/04/12 06:23:51;;;;;;;20.23;13.30;;;;;;;;;;10430654;28;20240;-69
2022/04/12 06:28:55;;;;;;;17.45;12.98;;;;;;;;;;10453693;28;20547;-71
2022/04/12 06:33:57;;;;;;;16.23;12.82;;;;;;;;;;10465711;28;20057;-69
2022/04/12 06:39:00;;;;;;;17.42;12.55;;;;;;;;;;10452441;28;20061;-72
2022/04/12 06:44:06;;;;;;;18.52;13.25;;;;;;;;;;10453853;28;20057;-71
2022/04/12 06:49:11;;;;;;;17.85;13.35;;;;;;;;;;10412101;28;20099;-68
2022/04/12 06:54:13;;;;;;;19.92;12.80;;;;;;;;;;10441268;28;20076;-71
2022/04/12 06:59:17;;;;;;;18.30;11.13;;;;;;;;;;10441750;28;20037;-69
2022/04/12 07:04:19;;;;;;;13.38;8.85;;;;;;;;;;10438862;28;20045;-68
2022/04/12 07:09:21;;;;;;;13.90;9.43;;;;;;;;;;10455853;28;20091;-69
2022/04/12 07:14:26;;;;;;;11.05;7.50;;;;;;;;;;10479451;28;20040;-71
2022/04/12 07:19:28;;;;;;;10.95;6.63;;;;;;;;;;10468213;28;20305;-74
2022/04/12 07:24:31;;;;;;;10.05;5.90;;;;;;;;;;10436123;28;20048;-73
2022/04/12 07:29:35;;;;;;;8.18;5.30;;;;;;;;;;10438491;28;20071;-70
2022/04/12 07:34:38;;;;;;;9.45;5.05;;;;;;;;;;10475758;28;20048;-71
2022/04/12 07:39:41;;;;;;;8.52;5.68;;;;;;;;;;10436839;28;20126;-73
2022/04/12 07:44:44;;;;;;;8.27;5.22;;;;;;;;;;10475390;28;20073;-74
2022/04/12 07:49:47;;;;;;;9.60;5.07;;;;;;;;;;10440268;28;20107;-69
2022/04/12 07:54:49;;;;;;;6.53;4.43;;;;;;;;;;10436487;28;20041;-74
2022/04/12 07:59:52;;;;;;;8.57;5.05;;;;;;;;;;10439083;28;20386;-73
2022/04/12 08:04:55;;;;;;;6.72;4.10;;;;;;;;;;10474939;28;20049;-73
2022/04/12 08:09:57;;;;;;;7.32;4.15;;;;;;;;;;10434734;28;20052;-72
2022/04/12 08:15:02;;;;;;;4.18;3.40;;;;;;;;;;10435537;28;20348;-73
2022/04/12 08:20:06;;;;;;;4.93;3.83;;;;;;;;;;10434961;28;20045;-73
2022/04/12 08:25:10;;;;;;;5.95;3.72;;;;;;;;;;10435138;28;20057;-74
2022/04/12 08:30:14;;;;;;;;;;;;;;;;;;10417353;28;20084;-74
2022/04/12 08:35:16;;;;;;;8.30;4.25;;;;;;;;;;10435113;28;19917;-69
2022/04/12 08:40:20;;;;;;;4.50;4.10;;;;;;;;;;10469152;28;20083;-72
2022/04/12 08:45:25;;;;;;;4.40;4.00;;;;;;;;;;10449199;28;20052;-75
2022/04/12 08:50:27;;;;;;;3.70;3.40;;;;;;;;;;10462228;28;20065;-68
2022/04/12 08:55:30;;;;;;;3.95;3.17;;;;;;;;;;10434007;28;20046;-74
2022/04/12 09:00:34;;;;;;;5.88;3.05;;;;;;;;;;10393590;28;20045;-70
2022/04/12 09:05:36;;;;;;;3.35;2.65;;;;;;;;;;10431335;28;20049;-73
2022/04/12 09:10:38;;;;;;;3.03;2.42;;;;;;;;;;10464868;28;20060;-74
2022/04/12 09:15:46;;;;;;;5.55;2.65;;;;;;;;;;10458819;28;20042;-71
2022/04/12 09:20:53;;;;;;;3.22;2.40;;;;;;;;;;10433471;28;20057;-71
2022/04/12 09:25:56;;;;;;;3.95;2.55;;;;;;;;;;10447221;28;20041;-70
2022/04/12 09:31:01;;;;;;;2.38;2.17;;;;;;;;;;10431295;28;20049;-73
2022/04/12 09:36:08;;;;;;;4.65;2.42;;;;;;;;;;10429591;28;20234;-70
2022/04/12 09:41:12;;;;;;;4.78;3.00;;;;;;;;;;10433096;28;20053;-70
2022/04/12 09:46:17;;;;;;;5.25;3.65;;;;;;;;;;10431970;28;20328;-72
2022/04/12 09:51:21;;;;;;;6.72;3.88;;;;;;;;;;10442865;28;20068;-72
2022/04/12 09:56:25;;;;;;;5.43;4.00;;;;;;;;;;10392636;28;20253;-74
2022/04/12 10:01:28;;;;;;;;;;;;;;;;;;10408127;28;20052;-73
2022/04/12 10:06:31;;;;;;;6.60;4.73;;;;;;;;;;10433417;28;19959;-72
2022/04/12 10:11:34;;;;;;;6.80;4.72;;;;;;;;;;10444021;28;20056;-70
2022/04/12 10:16:39;;;;;;;7.60;5.13;;;;;;;;;;10467597;28;20267;-71
2022/04/12 10:21:42;;;;;;;8.75;5.22;;;;;;;;;;10443960;28;20041;-74
2022/04/12 10:26:46;;;;;;;10.43;5.03;;;;;;;;;;10431667;28;20387;-73
2022/04/12 10:31:56;;;;;;;9.75;5.90;;;;;;;;;;10431034;28;20317;-74
2022/04/12 10:37:05;;;;;;;6.78;4.88;;;;;;;;;;10428246;28;20410;-70
2022/04/12 10:42:13;;;;;;;8.95;5.18;;;;;;;;;;10432430;28;20053;-72
2022/04/12 10:47:27;;;;;;;8.93;5.15;;;;;;;;;;10444432;28;20382;-72
2022/04/12 10:52:42;;;;;;;10.45;5.35;;;;;;;;;;10443937;28;20314;-70
2022/04/12 10:57:45;;;;;;;9.02;5.10;;;;;;;;;;10444804;28;20049;-73
2022/04/12 11:02:54;;;;;;;8.32;4.88;;;;;;;;;;10431536;28;20096;-72
2022/04/12 11:07:57;;;;;;;8.50;5.47;;;;;;;;;;10444845;28;20068;-73
2022/04/12 11:13:07;;;;;;;10.02;5.57;;;;;;;;;;10454128;28;20189;-73
2022/04/12 11:18:15;;;;;;;8.05;5.78;;;;;;;;;;10459096;28;20108;-72
2022/04/12 11:23:17;;;;;;;8.90;5.60;;;;;;;;;;10450217;28;20054;-73
2022/04/12 11:28:24;;;;;;;8.45;5.57;;;;;;;;;;10437377;28;20041;-72
2022/04/12 11:33:29;;;;;;;7.85;5.72;;;;;;;;;;10438846;28;20050;-72
2022/04/12 11:38:32;;;;;;;8.38;5.53;;;;;;;;;;10435033;28;20065;-75
2022/04/12 11:43:35;;;;;;;6.57;5.47;;;;;;;;;;10472436;28;20041;-69
2022/04/12 11:48:40;;;;;;;6.13;4.95;;;;;;;;;;10437901;28;20226;-70
2022/04/12 11:53:49;;;;;;;7.00;5.50;;;;;;;;;;10436598;28;20053;-73
2022/04/12 11:58:51;;;;;;;7.93;5.72;;;;;;;;;;10436857;28;20053;-72
2022/04/12 12:04:05;;;;;;;11.85;6.72;;;;;;;;;;10436779;28;20159;-72
2022/04/12 12:09:07;;;;;;;14.63;6.47;;;;;;;;;;10449897;28;20065;-74
2022/04/12 12:14:12;;;;;;;9.23;5.78;;;;;;;;;;10472660;28;20371;-71
2022/04/12 12:19:16;;;;;;;6.57;5.47;;;;;;;;;;10475675;28;20083;-70
2022/04/12 12:24:18;;;;;;;6.65;5.60;;;;;;;;;;10436217;28;20056;-73
2022/04/12 12:29:22;;;;;;;9.98;5.80;;;;;;;;;;10477195;28;20110;-71
2022/04/12 12:34:29;;;;;;;8.80;5.78;;;;;;;;;;10472705;28;20259;-69
2022/04/12 12:39:38;;;;;;;9.20;5.45;;;;;;;;;;10438636;28;20083;-73
2022/04/12 12:44:41;;;;;;;11.77;5.68;;;;;;;;;;10484360;28;20050;-74
2022/04/12 12:49:45;;;;;;;5.65;4.60;;;;;;;;;;10433622;28;20244;-73
2022/04/12 12:54:55;;;;;;;10.07;4.95;;;;;;;;;;10435091;28;20267;-72
2022/04/12 13:00:04;;;;;;;6.28;4.55;;;;;;;;;;10446866;28;20420;-73
2022/04/12 13:05:10;;;;;;;7.70;4.55;;;;;;;;;;10447411;28;20049;-70
2022/04/12 13:10:14;;;;;;;6.90;4.63;;;;;;;;;;10483075;28;20214;-73
2022/04/12 13:15:17;;;;;;;8.95;4.47;;;;;;;;;;10463240;28;20041;-74
2022/04/12 13:20:22;;;;;;;5.75;4.45;;;;;;;;;;10462651;28;20061;-72
2022/04/12 13:25:25;;;;;;;11.02;5.95;;;;;;;;;;10430642;28;20084;-71
2022/04/12 13:30:28;;;;;;;5.97;4.05;;;;;;;;;;10431289;28;20292;-74
2022/04/12 13:35:32;;;;;;;4.57;3.47;;;;;;;;;;10431203;28;20037;-73
2022/04/12 13:40:35;;;;;;;5.80;4.30;;;;;;;;;;10452672;28;20236;-73
2022/04/12 13:45:40;;;;;;;5.25;4.35;;;;;;;;;;10441493;28;20037;-72
2022/04/12 13:50:44;;;;;;;6.38;4.60;;;;;;;;;;10433808;28;20045;-70
2022/04/12 13:55:47;;;;;;;6.55;4.43;;;;;;;;;;10432944;28;20053;-72
2022/04/12 14:00:49;;;;;;;6.00;4.20;;;;;;;;;;10432395;28;20083;-72
2022/04/12 14:05:53;;;;;;;4.57;4.15;;;;;;;;;;10432446;28;20049;-73
2022/04/12 14:10:55;;;;;;;7.72;4.50;;;;;;;;;;10431636;28;20049;-72
2022/04/12 14:15:58;;;;;;;6.75;4.93;;;;;;;;;;10427974;28;20050;-68
2022/04/12 14:21:02;;;;;;;8.90;4.80;;;;;;;;;;10417527;28;20041;-71
2022/04/12 14:26:06;;;;;;;8.27;3.93;;;;;;;;;;10430650;28;20049;-73
2022/04/12 14:31:09;;;;;;;5.85;5.00;;;;;;;;;;10425594;28;20069;-69
2022/04/12 14:36:14;;;;;;;6.85;4.35;;;;;;;;;;10409797;28;20294;-70
2022/04/12 14:41:17;;;;;;;7.88;4.85;;;;;;;;;;10448255;28;20053;-74
2022/04/12 14:46:19;;;;;;;6.13;4.30;;;;;;;;;;10433170;28;20037;-73
2022/04/12 14:51:23;;;;;;;6.97;5.28;;;;;;;;;;10440512;28;20045;-71
2022/04/12 14:56:26;;;;;;;4.65;4.15;;;;;;;;;;10439680;28;20152;-75
2022/04/12 15:01:28;;;;;;;6.10;4.82;;;;;;;;;;10467291;28;20046;-74
2022/04/12 15:06:33;;;;;;;7.13;4.72;;;;;;;;;;10436827;28;20045;-72
2022/04/12 15:11:35;;;;;;;;;;;;;;;;;;10450875;28;20053;-70
2022/04/12 15:16:38;;;;;;;8.95;5.90;;;;;;;;;;10443615;28;19967;-74
2022/04/12 15:21:42;;;;;;;9.15;5.63;;;;;;;;;;10479388;28;20053;-73
2022/04/12 15:26:44;;;;;;;11.35;6.15;;;;;;;;;;10438540;28;20041;-73
2022/04/12 15:31:47;;;;;;;15.02;8.73;;;;;;;;;;10438713;28;20049;-74
2022/04/12 15:36:52;;;;;;;10.07;5.80;;;;;;;;;;10438071;28;20057;-71
2022/04/12 15:41:54;;;;;;;8.57;6.17;;;;;;;;;;10458409;28;20052;-70
2022/04/12 15:46:57;;;;;;;11.40;6.50;;;;;;;;;;10470080;28;20049;-73
2022/04/12 15:52:00;;;;;;;9.43;6.93;;;;;;;;;;10449847;28;20057;-69
2022/04/12 15:57:03;;;;;;;11.13;6.47;;;;;;;;;;10436693;28;20081;-70
2022/04/12 16:02:06;;;;;;;10.75;5.70;;;;;;;;;;10436350;28;20052;-69
2022/04/12 16:07:10;;;;;;;10.63;5.75;;;;;;;;;;10424307;28;20213;-70
2022/04/12 16:12:12;;;;;;;9.77;6.18;;;;;;;;;;10436975;28;20046;-71
2022/04/12 16:17:17;;;;;;;8.77;6.03;;;;;;;;;;10436719;28;20261;-69
2022/04/12 16:22:21;;;;;;;9.00;5.68;;;;;;;;;;10444545;28;20233;-73
2022/04/12 16:27:24;;;;;;;12.10;6.03;;;;;;;;;;10466606;28;20061;-73
2022/04/12 16:32:26;;;;;;;5.55;4.45;;;;;;;;;;10478452;28;20052;-73
2022/04/12 16:37:30;;;;;;;13.00;6.70;;;;;;;;;;10477446;28;20060;-75
2022/04/12 16:42:35;;;;;;;14.23;5.87;;;;;;;;;;10436449;28;20053;-73
2022/04/12 16:47:37;;;;;;;16.95;8.15;;;;;;;;;;10436241;28;20049;-70
2022/04/12 16:52:41;;;;;;;16.98;8.38;;;;;;;;;;10435503;28;20087;-71
2022/04/12 16:57:43;;;;;;;17.58;6.13;;;;;;;;;;10436305;28;20041;-75
2022/04/12 17:02:46;;;;;;;14.75;5.65;;;;;;;;;;10435192;28;20037;-73
2022/04/12 17:07:51;;;;;;;14.00;5.72;;;;;;;;;;10435507;28;20289;-72
2022/04/12 17:12:53;;;;;;;21.48;9.63;;;;;;;;;;10434937;28;20111;-71
2022/04/12 17:17:55;;;;;;;32.55;12.77;;;;;;;;;;10434456;28;20072;-74
2022/04/12 17:23:00;;;;;;;20.63;10.10;;;;;;;;;;10435043;28;20064;-74
2022/04/12 17:28:05;;;;;;;16.30;7.03;;;;;;;;;;10430541;28;20345;-70
2022/04/12 17:33:08;;;;;;;16.17;8.10;;;;;;;;;;10415154;28;20305;-72
2022/04/12 17:38:12;;;;;;;21.27;10.38;;;;;;;;;;10433551;28;20357;-72
2022/04/12 17:43:19;;;;;;;24.17;11.98;;;;;;;;;;10433456;28;20355;-74
2022/04/12 17:48:21;;;;;;;24.98;9.88;;;;;;;;;;10446471;28;20313;-72
2022/04/12 17:53:27;;;;;;;18.30;9.00;;;;;;;;;;10433953;28;20344;-73
2022/04/12 17:58:30;;;;;;;24.88;11.43;;;;;;;;;;10447438;28;20091;-70
2022/04/12 18:03:32;;;;;;;107.28;35.03;;;;;;;;;;10431016;28;20340;-76
2022/04/12 18:08:38;;;;;;;24.33;12.07;;;;;;;;;;10419645;28;20049;-72
2022/04/12 18:13:42;;;;;;;44.63;22.48;;;;;;;;;;10393652;28;20042;-70
2022/04/12 18:18:44;;;;;;;44.80;19.20;;;;;;;;;;10401010;28;20049;-72
2022/04/12 18:23:48;;;;;;;28.98;14.38;;;;;;;;;;10420126;28;20050;-72
2022/04/12 18:28:51;;;;;;;32.08;15.23;;;;;;;;;;10405292;28;20092;-72
2022/04/12 18:33:53;;;;;;;55.53;26.08;;;;;;;;;;10429729;28;20045;-74
2022/04/12 18:38:59;;;;;;;67.40;35.05;;;;;;;;;;10433322;28;20057;-70
2022/04/12 18:44:02;;;;;;;63.28;31.08;;;;;;;;;;10436411;28;20041;-70
2022/04/12 18:49:05;;;;;;;141.75;47.70;;;;;;;;;;10440589;28;20053;-73
2022/04/12 18:54:08;;;;;;;90.72;37.97;;;;;;;;;;10439622;28;20041;-73
2022/04/12 18:59:11;;;;;;;90.80;39.35;;;;;;;;;;10439492;28;20045;-72
2022/04/12 19:04:13;;;;;;;54.25;23.73;;;;;;;;;;10439245;28;20049;-74
2022/04/12 19:09:17;;;;;;;37.28;18.85;;;;;;;;;;10460980;28;20037;-72
2022/04/12 19:14:19;;;;;;;43.15;19.10;;;;;;;;;;10437896;28;20042;-73
2022/04/12 19:19:22;;;;;;;51.28;21.60;;;;;;;;;;10421246;28;20068;-72
2022/04/12 19:24:26;;;;;;;45.22;23.35;;;;;;;;;;10435433;28;20391;-70
2022/04/12 19:29:28;;;;;;;49.97;23.48;;;;;;;;;;10438861;28;20378;-70
2022/04/12 19:34:31;;;;;;;52.97;25.00;;;;;;;;;;10420984;28;20066;-74
2022/04/12 19:39:35;;;;;;;47.97;23.63;;;;;;;;;;10426549;28;20080;-72
2022/04/12 19:44:40;;;;;;;66.15;28.70;;;;;;;;;;10437422;28;20041;-70
2022/04/12 19:49:43;;;;;;;81.82;34.13;;;;;;;;;;10438280;28;20348;-72
2022/04/12 19:54:47;;;;;;;61.38;26.20;;;;;;;;;;10437025;28;20046;-72
2022/04/12 19:59:49;;;;;;;67.53;31.08;;;;;;;;;;10422359;28;20053;-75
2022/04/12 20:04:51;;;;;;;64.68;30.75;;;;;;;;;;10419591;28;20042;-71
2022/04/12 20:09:55;;;;;;;78.90;34.97;;;;;;;;;;10473769;28;20053;-74
2022/04/12 20:14:57;;;;;;;101.32;42.10;;;;;;;;;;10439276;28;20248;-72
2022/04/12 20:20:01;;;;;;;133.30;53.92;;;;;;;;;;10434883;28;20045;-70
2022/04/12 20:25:06;;;;;;;123.53;48.63;;;;;;;;;;10434871;28;20041;-73
2022/04/12 20:30:10;;;;;;;99.30;39.83;;;;;;;;;;10435576;28;20033;-72
2022/04/12 20:35:12;;;;;;;84.50;36.33;;;;;;;;;;10433359;28;20357;-73
2022/04/12 20:40:16;;;;;;;96.85;40.97;;;;;;;;;;10424138;28;20143;-75
2022/04/12 20:45:19;;;;;;;81.88;36.50;;;;;;;;;;10431827;28;20049;-74
2022/04/12 20:50:22;;;;;;;155.73;61.55;;;;;;;;;;10399026;28;20271;-73
2022/04/12 20:55:26;;;;;;;109.45;44.47;;;;;;;;;;10434274;28;20216;-73
2022/04/12 21:00:28;;;;;;;104.40;41.60;;;;;;;;;;10435150;28;20103;-74
2022/04/12 21:05:31;;;;;;;95.65;44.35;;;;;;;;;;10434762;28;20063;-71
2022/04/12 21:10:35;;;;;;;87.78;36.80;;;;;;;;;;10432953;28;20037;-70
2022/04/12 21:15:37;;;;;;;71.05;32.17;;;;;;;;;;10434249;28;20131;-70
2022/04/12 21:20:39;;;;;;;69.88;31.75;;;;;;;;;;10433967;28;20052;-72
2022/04/12 21:25:43;;;;;;;62.10;27.77;;;;;;;;;;10413300;28;20048;-73
2022/04/12 21:30:46;;;;;;;56.13;27.02;;;;;;;;;;10418501;28;20041;-73
2022/04/12 21:35:48;;;;;;;57.70;26.30;;;;;;;;;;10430803;28;20087;-75
2022/04/12 21:40:53;;;;;;;56.83;26.95;;;;;;;;;;10436815;28;20352;-73
2022/04/12 21:45:55;;;;;;;54.97;24.23;;;;;;;;;;10473952;28;20041;-74
2022/04/12 21:50:58;;;;;;;66.13;26.52;;;;;;;;;;10442362;28;20057;-75
2022/04/12 21:56:03;;;;;;;62.38;27.50;;;;;;;;;;10431254;28;20040;-74
2022/04/12 22:01:06;;;;;;;54.08;24.48;;;;;;;;;;10434010;28;20244;-73
2022/04/12 22:06:08;;;;;;;53.17;23.73;;;;;;;;;;10471416;28;20041;-70
2022/04/12 22:11:12;;;;;;;51.33;24.65;;;;;;;;;;10430377;28;20072;-71
2022/04/12 22:16:15;;;;;;;51.65;23.92;;;;;;;;;;10432695;28;20061;-70
2022/04/12 22:21:17;;;;;;;48.45;23.60;;;;;;;;;;10471501;28;20053;-70
2022/04/12 22:26:21;;;;;;;46.05;22.77;;;;;;;;;;10432024;28;20410;-70
2022/04/12 22:31:24;;;;;;;43.25;20.83;;;;;;;;;;10442668;28;20041;-71
2022/04/12 22:36:27;;;;;;;46.70;20.58;;;;;;;;;;10464345;28;20100;-73
2022/04/12 22:41:34;;;;;;;49.17;21.08;;;;;;;;;;10432600;28;20076;-72
2022/04/12 22:46:38;;;;;;;36.75;19.02;;;;;;;;;;10431640;28;20084;-74
2022/04/12 22:51:40;;;;;;;36.10;17.42;;;;;;;;;;10447966;28;20049;-71
2022/04/12 22:56:46;;;;;;;44.35;19.17;;;;;;;;;;10473438;28;20378;-72
2022/04/12 23:01:49;;;;;;;41.00;18.42;;;;;;;;;;10458942;28;20048;-69
2022/04/12 23:06:51;;;;;;;38.50;18.98;;;;;;;;;;10457463;28;20073;-70
2022/04/12 23:11:55;;;;;;;40.05;20.73;;;;;;;;;;10438332;28;20042;-70
2022/04/12 23:16:57;;;;;;;39.30;19.63;;;;;;;;;;10438349;28;20045;-70
2022/04/12 23:22:00;;;;;;;39.03;19.45;;;;;;;;;;10436537;28;20045;-70
2022/04/12 23:27:05;;;;;;;38.75;18.42;;;;;;;;;;10437740;28;20320;-71
2022/04/12 23:32:08;;;;;;;39.33;18.92;;;;;;;;;;10436623;28;20049;-71
2022/04/12 23:37:11;;;;;;;44.47;21.52;;;;;;;;;;10437397;28;20057;-70
2022/04/12 23:42:15;;;;;;;50.38;22.50;;;;;;;;;;10436705;28;20159;-70
2022/04/12 23:47:17;;;;;;;45.55;21.08;;;;;;;;;;10436529;28;20045;-70
2022/04/12 23:52:19;;;;;;;47.63;23.55;;;;;;;;;;10445983;28;20064;-70
2022/04/12 23:57:23;;;;;;;60.47;27.23;;;;;;;;;;10434987;28;20156;-70
